aviador You're here:

KCOU Decoded Metar

COLUMBIA in MO, USA
Report Time2017-10-21 14:54:00
UTC Time2017-10-21 15:49:20
Flight Rules vfr VFR
Wind180° at 16 Gusting to 22 kt
W.Decomp.*RWY 20: 14.7 kt HW 6.3 kt LCW
RWY 13: 10.9 kt HW 11.7 kt RCW
W.Rank180° ranks 2
Current wind is above 180° avg. (8.6)
Visibility9999 m
Phenomena:N/A
Clouds:N/A
Expected CloudBase > 2,000 ft AGL from Temp-Dew spread
CeilingNone
Temp20°C (ISA +7)
Dew Point15°C (73% RH)
AAT15.9°C
QNH1015 hPa
Density Alt1,844 ft
Elevation889 ft
Report Wrong Elevation
Raw Report
KCOU 211454Z 18016G22KT 10SM CLR 20/15 A2998 RMK AO2 SLP147
T02000150 50005=

Extra information for KCOU:More info

Metar Taf Metar & Taf Last 4 Metars F.Rules Stats Wind Profile Meteogram Temp Stats Airport Information Weather charts Add Link Nearby VenuesMetar ALERT Operation Metar Decoded Social comments

AIRNAV info for KCOU